Time;durP1;ratioP1;P1;durP2;ratioP2;P2;SDS_P1;SDS_P2;PMS_P1;PMS_P2;Temp;Humidity;BMP_temperature;BMP_pressure;BME280_temperature;BME280_humidity;BME280_pressure;Samples;Min_cycle;Max_cycle;Signal;HPM_P1;HPM_P2
2022/01/07 00:02:13;;;;;;;1.57;1.37;;;-1.90;99.90;-2.90;97202.00;;;;5004971;28;20472;-72
2022/01/07 00:05:03;;;;;;;2.50;1.33;;;-2.10;99.90;-2.80;97201.00;;;;5005176;28;20438;-73
2022/01/07 00:07:52;;;;;;;1.23;1.00;;;-2.10;99.90;-2.70;97203.00;;;;5007226;28;20433;-74
2022/01/07 00:10:41;;;;;;;2.00;1.33;;;-2.20;99.90;-2.60;97206.00;;;;5004845;28;20472;-71
2022/01/07 00:13:30;;;;;;;3.50;1.77;;;-2.10;99.90;-2.70;97188.00;;;;5006464;28;20430;-73
2022/01/07 00:16:20;;;;;;;0.80;0.80;;;-2.10;99.90;-2.80;97195.00;;;;5004007;28;20430;-73
2022/01/07 00:19:15;;;;;;;5.20;2.20;;;-2.10;99.90;-3.00;97199.00;;;;5005058;28;20429;-73
2022/01/07 00:22:05;;;;;;;1.77;1.67;;;-2.20;99.90;-3.20;97193.00;;;;5005073;28;20465;-72
2022/01/07 00:24:53;;;;;;;3.87;1.70;;;-2.30;99.90;-3.30;97202.00;;;;5002209;28;20936;-72
2022/01/07 00:27:43;;;;;;;1.40;1.30;;;-2.40;99.90;-3.30;97201.00;;;;5006660;28;20449;-72
2022/01/07 00:30:33;;;;;;;2.67;1.80;;;-2.40;99.90;-3.00;97199.00;;;;5005280;28;20430;-72
2022/01/07 00:33:23;;;;;;;2.30;1.87;;;-2.40;99.90;-2.90;97200.00;;;;5002371;28;20437;-72
2022/01/07 00:36:12;;;;;;;2.03;1.53;;;-2.40;99.90;-2.90;97191.00;;;;5005688;28;20433;-72
2022/01/07 00:39:04;;;;;;;1.53;1.43;;;-2.40;99.90;-2.90;97198.00;;;;5009069;28;20486;-72
2022/01/07 00:41:53;;;;;;;3.23;1.50;;;-2.40;99.90;-3.10;97199.00;;;;5006836;28;20543;-71
2022/01/07 00:44:42;;;;;;;2.43;1.37;;;-2.40;99.90;-3.20;97189.00;;;;5006742;28;20842;-73
2022/01/07 00:47:31;;;;;;;1.53;1.43;;;-2.40;99.90;-3.40;97188.00;;;;5007947;28;20421;-71
2022/01/07 00:50:23;;;;;;;2.37;1.57;;;-2.50;99.90;-3.20;97199.00;;;;5006500;28;20811;-72
2022/01/07 00:53:11;;;;;;;3.57;1.77;;;-2.40;99.90;-3.10;97198.00;;;;5004143;28;20436;-72
2022/01/07 00:56:00;;;;;;;1.43;1.10;;;-2.40;99.90;-3.40;97198.00;;;;5008121;28;20448;-71
2022/01/07 00:58:49;;;;;;;1.50;1.30;;;-2.40;99.90;-3.50;97201.00;;;;5007841;28;20960;-72
2022/01/07 01:01:38;;;;;;;1.63;1.30;;;-2.60;99.90;-3.30;97203.00;;;;4998684;28;20460;-71
2022/01/07 01:04:28;;;;;;;0.80;0.80;;;-2.60;99.90;-3.40;97203.00;;;;5007341;28;20878;-72
2022/01/07 01:07:18;;;;;;;1.30;1.20;;;-2.60;99.90;-3.40;97205.00;;;;5005542;28;20433;-72
2022/01/07 01:10:09;;;;;;;2.00;1.23;;;-2.70;99.90;-3.20;97183.00;;;;5007164;28;20444;-72
2022/01/07 01:12:59;;;;;;;1.03;1.03;;;-2.60;99.90;-3.10;97192.00;;;;5005192;28;20439;-72
2022/01/07 01:15:48;;;;;;;2.83;1.50;;;-2.60;99.90;-3.20;97202.00;;;;5006286;28;20425;-71
2022/01/07 01:18:37;;;;;;;2.33;1.27;;;-2.60;99.90;-3.30;97197.00;;;;5008266;28;20440;-72
2022/01/07 01:21:26;;;;;;;1.90;1.57;;;-2.60;99.90;-3.30;97191.00;;;;5000869;28;20468;-72
2022/01/07 01:24:16;;;;;;;1.47;1.13;;;-2.60;99.90;-3.50;97189.00;;;;5008194;28;20481;-72
2022/01/07 01:27:06;;;;;;;1.43;1.23;;;-2.60;99.90;-3.70;97183.00;;;;5004156;28;20433;-73
2022/01/07 01:29:55;;;;;;;1.53;1.23;;;-2.70;99.90;-3.50;97181.00;;;;5006748;28;20436;-72
2022/01/07 01:32:44;;;;;;;3.10;1.57;;;-2.70;99.90;-3.60;97169.00;;;;5008980;28;20433;-71
2022/01/07 01:35:37;;;;;;;4.10;1.40;;;-2.80;99.90;-3.50;97183.00;;;;5006284;28;20522;-71
2022/01/07 01:38:27;;;;;;;1.13;1.03;;;-2.80;99.90;-3.30;97182.00;;;;5004760;28;20429;-72
2022/01/07 01:41:17;;;;;;;0.80;0.80;;;-2.90;99.90;-3.20;97192.00;;;;5005367;28;20449;-72
2022/01/07 01:44:06;;;;;;;1.17;1.07;;;-2.70;99.90;-3.20;97196.00;;;;5006033;28;20506;-71
2022/01/07 01:46:56;;;;;;;3.93;1.50;;;-2.60;99.90;-3.20;97190.00;;;;5008255;28;20437;-71
2022/01/07 01:49:45;;;;;;;1.53;1.33;;;-2.60;99.90;-3.20;97193.00;;;;5011127;28;20421;-71
2022/01/07 01:52:36;;;;;;;0.87;0.80;;;-2.60;99.90;-3.30;97187.00;;;;5006658;28;20455;-71
2022/01/07 01:55:27;;;;;;;1.73;1.40;;;-2.60;99.90;-3.40;97201.00;;;;5008061;28;20932;-72
2022/01/07 01:58:21;;;;;;;0.93;0.93;;;-2.70;99.90;-3.40;97192.00;;;;5012358;28;20786;-70
2022/01/07 02:01:11;;;;;;;1.20;1.10;;;-2.70;99.90;-3.40;97183.00;;;;5008224;28;20467;-71
2022/01/07 02:03:59;;;;;;;1.43;1.33;;;-2.30;99.90;-3.30;97194.00;;;;5007153;28;20464;-71
2022/01/07 02:06:49;;;;;;;1.30;1.30;;;-2.70;99.90;-3.30;97183.00;;;;5006049;28;20803;-72
2022/01/07 02:09:38;;;;;;;1.30;1.20;;;-2.70;99.90;-3.50;97183.00;;;;5007177;28;20441;-71
2022/01/07 02:12:27;;;;;;;1.00;1.00;;;-2.70;99.90;-3.50;97185.00;;;;5009066;28;20463;-72
2022/01/07 02:15:19;;;;;;;1.87;1.50;;;-2.80;99.90;-3.50;97179.00;;;;5006944;28;20417;-72
2022/01/07 02:18:08;;;;;;;1.30;1.20;;;-2.80;99.90;-3.60;97174.00;;;;5010178;28;20602;-71
2022/01/07 02:20:58;;;;;;;1.33;1.20;;;-2.80;99.90;-3.60;97170.00;;;;5006179;28;20465;-71
2022/01/07 02:23:47;;;;;;;0.90;0.90;;;-2.90;99.90;-3.70;97177.00;;;;5010152;28;20440;-70
2022/01/07 02:26:37;;;;;;;1.80;0.97;;;-3.00;99.90;-3.60;97183.00;;;;5005156;28;20484;-72
2022/01/07 02:29:27;;;;;;;1.93;1.80;;;-2.90;99.90;-3.60;97173.00;;;;5009680;28;20441;-72
2022/01/07 02:32:17;;;;;;;2.17;1.57;;;-2.90;99.90;-3.50;97186.00;;;;5009431;28;20475;-71
2022/01/07 02:35:09;;;;;;;2.57;2.20;;;-3.00;99.90;-3.80;97173.00;;;;5007659;28;20460;-72
2022/01/07 02:38:01;;;;;;;2.90;2.07;;;-3.00;99.90;-3.80;97176.00;;;;5009662;28;20441;-71
2022/01/07 02:40:50;;;;;;;1.10;1.10;;;-3.00;99.90;-3.80;97175.00;;;;5007481;28;20449;-72
2022/01/07 02:43:39;;;;;;;1.73;1.53;;;-3.00;99.90;-3.90;97161.00;;;;5008660;28;20437;-71
2022/01/07 02:46:28;;;;;;;1.10;1.10;;;-3.10;99.90;-3.80;97158.00;;;;5005748;28;20426;-71
2022/01/07 02:49:19;;;;;;;1.80;1.70;;;-3.10;99.90;-3.90;97178.00;;;;5008273;28;20434;-70
2022/01/07 02:52:08;;;;;;;2.73;1.40;;;-4.30;99.90;-3.80;97170.00;;;;5006558;28;20461;-70
2022/01/07 02:54:59;;;;;;;1.33;1.23;;;-3.10;99.90;-4.20;97159.00;;;;5008001;28;20427;-73
2022/01/07 02:57:48;;;;;;;1.23;1.23;;;-1.50;99.90;-3.90;97159.00;;;;5008193;28;20433;-71
2022/01/07 03:00:38;;;;;;;1.77;1.67;;;-3.10;99.90;-3.50;97168.00;;;;5009289;28;20456;-73
2022/01/07 03:03:26;;;;;;;1.60;1.33;;;-3.10;99.90;-3.30;97164.00;;;;5004766;28;20857;-73
2022/01/07 03:06:15;;;;;;;3.33;1.67;;;-3.00;99.90;-3.30;97158.00;;;;5007652;28;21046;-70
2022/01/07 03:09:06;;;;;;;1.00;1.00;;;-2.90;99.90;-3.30;97175.00;;;;5009678;28;20437;-72
2022/01/07 03:11:57;;;;;;;2.77;1.23;;;-2.80;99.90;-3.30;97172.00;;;;5007903;28;20445;-71
2022/01/07 03:14:48;;;;;;;1.20;1.20;;;-2.80;99.90;-3.20;97165.00;;;;5007562;28;20802;-71
2022/01/07 03:17:40;;;;;;;1.90;1.23;;;-2.80;99.90;-3.20;97170.00;;;;5007923;28;20433;-71
2022/01/07 03:20:29;;;;;;;1.73;1.10;;;-2.70;99.90;-3.20;97158.00;;;;5006478;28;20429;-73
2022/01/07 03:23:18;;;;;;;1.37;1.27;;;-2.70;99.90;-3.10;97157.00;;;;5003306;28;20936;-71
2022/01/07 03:26:07;;;;;;;3.33;1.70;;;-2.70;99.90;-3.00;97163.00;;;;5008764;28;20472;-73
2022/01/07 03:28:57;;;;;;;1.57;1.27;;;-2.60;99.90;-3.10;97164.00;;;;5005328;28;20460;-71
2022/01/07 03:31:46;;;;;;;3.07;2.07;;;-2.60;99.90;-3.20;97149.00;;;;5005615;28;20465;-72
2022/01/07 03:34:35;;;;;;;2.27;2.07;;;-2.60;99.90;-3.60;97156.00;;;;5007420;28;20444;-72
2022/01/07 03:37:24;;;;;;;4.53;2.17;;;-2.70;99.90;-3.50;97160.00;;;;5007529;28;21160;-72
2022/01/07 03:40:14;;;;;;;2.37;1.60;;;-2.70;99.90;-3.50;97162.00;;;;5004517;28;20445;-72
2022/01/07 03:43:04;;;;;;;1.67;1.57;;;-2.70;99.90;-3.30;97149.00;;;;5004808;28;20452;-73
2022/01/07 03:45:54;;;;;;;5.70;1.60;;;-1.90;99.90;-3.20;97158.00;;;;5003634;28;20492;-72
2022/01/07 03:48:43;;;;;;;2.13;1.40;;;-2.70;99.90;-3.40;97153.00;;;;4999645;28;20433;-73
2022/01/07 03:51:32;;;;;;;1.60;1.50;;;-2.70;99.90;-3.30;97157.00;;;;5005949;28;20451;-72
2022/01/07 03:54:22;;;;;;;6.23;1.60;;;-2.70;99.90;-3.10;97160.00;;;;5006563;28;20433;-73
2022/01/07 03:57:11;;;;;;;2.10;1.73;;;-2.70;99.90;-3.30;97144.00;;;;5007117;28;20710;-71
2022/01/07 04:00:00;;;;;;;4.37;1.70;;;-2.70;99.90;-3.20;97145.00;;;;5005174;28;20452;-71
2022/01/07 04:02:51;;;;;;;1.87;1.70;;;-2.60;99.90;-3.30;97144.00;;;;5002059;28;20811;-72
2022/01/07 04:05:40;;;;;;;3.27;1.60;;;-2.70;99.90;-3.40;97141.00;;;;5005089;28;20472;-73
2022/01/07 04:08:29;;;;;;;2.17;1.60;;;-2.70;99.90;-3.30;97137.00;;;;5006715;28;20422;-70
2022/01/07 04:11:19;;;;;;;1.97;1.80;;;-2.70;99.90;-3.20;97127.00;;;;5005666;28;20976;-71
2022/01/07 04:14:08;;;;;;;2.50;2.30;;;-2.70;99.90;-3.40;97132.00;;;;4998214;28;20417;-70
2022/01/07 04:16:59;;;;;;;1.37;1.27;;;-2.70;99.90;-3.60;97130.00;;;;4996836;28;20417;-73
2022/01/07 04:19:55;;;;;;;2.53;2.33;;;-2.80;99.90;-3.70;97133.00;;;;5006662;28;20428;-74
2022/01/07 04:22:45;;;;;;;1.97;1.30;;;-2.80;99.90;-3.70;97139.00;;;;5005457;28;20437;-71
2022/01/07 04:25:34;;;;;;;3.07;2.33;;;-2.90;99.90;-3.70;97138.00;;;;5005487;28;20853;-71
2022/01/07 04:28:23;;;;;;;6.00;2.97;;;-2.90;99.90;-3.60;97132.00;;;;5005263;28;20441;-70
2022/01/07 04:31:12;;;;;;;3.07;2.30;;;-2.90;99.90;-3.60;97137.00;;;;5004956;28;20452;-72
2022/01/07 04:34:01;;;;;;;1.40;1.30;;;-3.00;99.90;-3.60;97145.00;;;;5005644;28;20437;-73
2022/01/07 04:36:52;;;;;;;1.70;1.13;;;-3.00;99.90;-3.60;97143.00;;;;5004276;28;20967;-73
2022/01/07 04:39:41;;;;;;;3.37;1.50;;;-2.90;99.90;-3.80;97144.00;;;;5000474;28;20437;-72
2022/01/07 04:42:30;;;;;;;2.60;1.80;;;-3.00;99.90;-3.80;97140.00;;;;5006010;28;21336;-73
2022/01/07 04:45:21;;;;;;;1.60;1.50;;;-3.00;99.90;-3.80;97133.00;;;;5002968;28;20499;-72
2022/01/07 04:48:10;;;;;;;1.50;1.40;;;-3.00;99.90;-4.00;97139.00;;;;5004237;28;20432;-73
2022/01/07 04:50:59;;;;;;;1.80;1.70;;;-3.10;99.90;-3.80;97130.00;;;;5003080;28;20471;-72
2022/01/07 04:53:49;;;;;;;2.00;1.80;;;-3.10;99.90;-3.80;97135.00;;;;5005677;28;20437;-72
2022/01/07 04:56:38;;;;;;;1.60;1.50;;;-2.90;99.90;-3.90;97145.00;;;;5002971;28;20455;-72
2022/01/07 04:59:27;;;;;;;4.10;2.83;;;-3.20;99.90;-4.00;97123.00;;;;5005135;28;20425;-72
2022/01/07 05:02:19;;;;;;;2.40;2.20;;;-3.20;99.90;-4.10;97126.00;;;;5004482;28;20461;-72
2022/01/07 05:05:09;;;;;;;3.80;2.30;;;-3.30;99.90;-4.30;97118.00;;;;5006970;28;20461;-72
2022/01/07 05:07:58;;;;;;;2.13;1.90;;;-3.40;99.90;-4.30;97124.00;;;;5009907;28;20440;-72
2022/01/07 05:10:48;;;;;;;2.00;1.67;;;-3.40;99.90;-4.20;97127.00;;;;5004515;28;20453;-74
2022/01/07 05:13:37;;;;;;;2.73;1.63;;;-3.40;99.90;-4.20;97125.00;;;;5007469;28;20433;-73
2022/01/07 05:16:28;;;;;;;1.37;1.27;;;-3.40;99.90;-4.10;97131.00;;;;5004659;28;20425;-70
2022/01/07 05:19:17;;;;;;;1.83;1.70;;;-3.40;99.90;-4.10;97131.00;;;;5005166;28;20432;-72
2022/01/07 05:22:06;;;;;;;2.63;2.33;;;-3.40;99.90;-4.00;97133.00;;;;5007786;28;20857;-73
2022/01/07 05:24:55;;;;;;;2.27;2.07;;;-3.40;99.90;-4.30;97126.00;;;;5008853;28;20444;-71
2022/01/07 05:27:46;;;;;;;0.70;0.70;;;-3.40;99.90;-4.90;97131.00;;;;5002716;28;20422;-72
2022/01/07 05:30:35;;;;;;;1.40;1.30;;;-3.50;99.90;-5.00;97120.00;;;;4991447;28;20426;-73
2022/01/07 05:33:24;;;;;;;2.60;1.00;;;-3.70;99.90;-4.70;97124.00;;;;5006011;28;20519;-71
2022/01/07 05:36:14;;;;;;;1.07;0.70;;;-3.70;99.90;-4.70;97126.00;;;;5009095;28;20444;-71
2022/01/07 05:39:03;;;;;;;2.20;1.47;;;-3.80;99.90;-4.60;97137.00;;;;5008884;28;20444;-70
2022/01/07 05:41:52;;;;;;;2.03;1.83;;;-3.80;99.90;-4.70;97121.00;;;;5000688;28;20476;-71
2022/01/07 05:44:43;;;;;;;1.80;1.70;;;-3.90;99.90;-4.70;97125.00;;;;5009425;28;20417;-71
2022/01/07 05:47:32;;;;;;;3.70;2.40;;;-3.90;99.90;-4.60;97125.00;;;;5011374;28;20463;-71
2022/01/07 05:50:21;;;;;;;1.47;1.37;;;-3.90;99.90;-4.40;97130.00;;;;5002367;28;20467;-70
2022/01/07 05:53:11;;;;;;;2.90;2.53;;;-3.80;99.90;-4.60;97119.00;;;;5012496;28;20901;-71
2022/01/07 05:55:59;;;;;;;3.80;3.40;;;-3.80;99.90;-4.70;97118.00;;;;5010083;28;20441;-70
2022/01/07 05:58:48;;;;;;;3.83;3.17;;;-3.80;99.90;-4.80;97116.00;;;;5007822;28;20428;-71
2022/01/07 06:01:39;;;;;;;2.37;2.17;;;-3.90;99.90;-4.90;97118.00;;;;5007347;28;20499;-72
2022/01/07 06:04:28;;;;;;;1.00;1.00;;;-4.00;99.90;-5.20;97121.00;;;;5008063;28;20426;-71
2022/01/07 06:07:17;;;;;;;3.63;2.13;;;-4.10;99.90;-5.20;97115.00;;;;5001975;28;20468;-70
2022/01/07 06:10:07;;;;;;;12.93;6.33;;;-4.20;99.90;-5.20;97127.00;;;;5010627;28;20443;-69
2022/01/07 06:12:57;;;;;;;1.90;1.77;;;-4.20;99.90;-5.30;97121.00;;;;5010898;28;20676;-72
2022/01/07 06:15:46;;;;;;;1.30;1.20;;;-4.30;99.90;-5.40;97121.00;;;;5009994;28;20433;-70
2022/01/07 06:18:36;;;;;;;1.93;1.80;;;-4.30;99.90;-5.10;97123.00;;;;5010376;28;21139;-71
2022/01/07 06:21:26;;;;;;;1.93;1.57;;;-4.30;99.90;-5.00;97135.00;;;;5009249;28;20461;-70
2022/01/07 06:24:14;;;;;;;1.77;1.67;;;-4.40;99.90;-5.10;97134.00;;;;5010300;28;20441;-70
2022/01/07 06:27:04;;;;;;;7.37;4.30;;;-4.40;99.90;-5.30;97127.00;;;;5012520;28;20854;-72
2022/01/07 06:29:53;;;;;;;3.87;3.40;;;-4.40;99.90;-5.40;97121.00;;;;5009216;28;20439;-70
2022/01/07 06:32:42;;;;;;;4.03;3.63;;;-4.40;99.90;-5.40;97117.00;;;;5009257;28;20944;-73
2022/01/07 06:35:34;;;;;;;3.20;1.70;;;-4.40;99.90;-5.50;97121.00;;;;5009842;28;20421;-72
2022/01/07 06:38:23;;;;;;;1.07;0.97;;;-4.50;99.90;-5.60;97120.00;;;;4998250;28;20873;-71
2022/01/07 06:41:12;;;;;;;5.63;1.70;;;-4.50;99.90;-5.40;97132.00;;;;5010541;28;20441;-71
2022/01/07 06:44:01;;;;;;;2.33;2.13;;;-4.50;99.90;-5.10;97138.00;;;;5009665;28;20956;-71
2022/01/07 06:46:50;;;;;;;2.57;2.37;;;-4.50;99.90;-5.30;97132.00;;;;5005603;28;20469;-70
2022/01/07 06:49:39;;;;;;;1.23;1.13;;;-4.40;99.90;-5.60;97135.00;;;;5005726;28;20956;-72
2022/01/07 06:52:29;;;;;;;1.67;1.20;;;-4.50;99.90;-5.60;97132.00;;;;5007836;28;20452;-72
2022/01/07 06:55:19;;;;;;;1.47;1.37;;;-4.60;99.90;-5.40;97132.00;;;;5010818;28;20433;-72
2022/01/07 06:58:09;;;;;;;4.10;3.83;;;-4.60;99.90;-5.30;97137.00;;;;5009413;28;20422;-73
2022/01/07 07:00:58;;;;;;;2.60;1.50;;;-4.50;99.90;-5.50;97139.00;;;;5006386;28;20460;-72
2022/01/07 07:03:48;;;;;;;2.10;1.57;;;-4.50;99.90;-5.60;97135.00;;;;5007190;28;20430;-72
2022/01/07 07:06:36;;;;;;;1.97;1.30;;;-4.50;99.90;-5.40;97137.00;;;;5007402;28;20469;-71
2022/01/07 07:09:27;;;;;;;5.73;5.20;;;-4.50;99.90;-5.40;97134.00;;;;5003743;28;20422;-72
2022/01/07 07:12:16;;;;;;;4.30;4.00;;;-4.60;99.90;-5.60;97147.00;;;;5000692;28;20445;-70
2022/01/07 07:15:06;;;;;;;1.70;1.60;;;-4.60;99.90;-5.60;97144.00;;;;5008192;28;21120;-71
2022/01/07 07:17:55;;;;;;;1.03;1.03;;;-4.60;99.90;-5.70;97131.00;;;;5008597;28;20425;-69
2022/01/07 07:20:44;;;;;;;7.57;5.00;;;-4.60;99.90;-5.50;97150.00;;;;5008401;28;20465;-72
2022/01/07 07:23:33;;;;;;;18.47;12.40;;;-4.60;99.90;-5.40;97148.00;;;;5003731;28;20429;-72
2022/01/07 07:26:23;;;;;;;9.27;5.13;;;-4.60;99.90;-5.10;97139.00;;;;5006066;28;20505;-72
2022/01/07 07:29:14;;;;;;;18.27;10.80;;;-4.50;99.90;-5.00;97138.00;;;;5003066;28;20429;-73
2022/01/07 07:32:07;;;;;;;10.67;6.53;;;-4.30;99.90;-5.20;97144.00;;;;5005380;28;20519;-73
2022/01/07 07:34:59;;;;;;;5.47;3.37;;;-4.30;99.90;-5.40;97129.00;;;;5000677;28;20433;-72
2022/01/07 07:37:49;;;;;;;2.13;1.83;;;-4.40;99.90;-5.60;97139.00;;;;5004325;28;20938;-73
2022/01/07 07:40:38;;;;;;;2.90;2.13;;;-4.40;99.90;-5.50;97147.00;;;;5002807;28;20499;-72
2022/01/07 07:43:29;;;;;;;2.07;1.97;;;-4.50;99.90;-5.50;97136.00;;;;5001719;28;20871;-70
2022/01/07 07:46:18;;;;;;;0.97;0.97;;;-4.40;99.90;-5.40;97152.00;;;;5005295;28;20456;-70
2022/01/07 07:49:08;;;;;;;1.70;1.60;;;-4.40;99.90;-5.40;97142.00;;;;5006276;28;20434;-71
2022/01/07 07:51:58;;;;;;;4.53;1.70;;;-4.40;99.90;-5.60;97140.00;;;;4997934;28;20469;-70
2022/01/07 07:54:47;;;;;;;1.30;1.20;;;-4.50;99.90;-5.60;97135.00;;;;5005428;28;20796;-73
2022/01/07 07:57:36;;;;;;;1.00;1.00;;;-4.50;99.90;-5.70;97140.00;;;;5008054;28;21173;-71
2022/01/07 08:00:26;;;;;;;1.10;1.10;;;-4.50;99.90;-5.60;97142.00;;;;5004674;28;20430;-71
2022/01/07 08:03:16;;;;;;;0.70;0.70;;;-4.50;99.90;-5.50;97141.00;;;;5002221;28;20487;-73
2022/01/07 08:06:05;;;;;;;1.03;1.03;;;-4.50;99.90;-5.60;97139.00;;;;4992086;28;20452;-71
2022/01/07 08:08:54;;;;;;;1.83;1.57;;;-4.40;99.90;-5.40;97136.00;;;;4999037;28;20414;-71
2022/01/07 08:11:51;;;;;;;1.33;1.33;;;-4.40;99.90;-5.50;97137.00;;;;5005315;28;20443;-69
2022/01/07 08:17:48;;;;;;;1.87;1.73;;;-4.40;99.90;-5.20;97135.00;;;;5004871;28;20429;-71
2022/01/07 08:20:37;;;;;;;3.03;2.03;;;-4.40;99.90;-5.30;97136.00;;;;5004402;28;20952;-73
2022/01/07 08:23:25;;;;;;;1.73;1.47;;;-4.30;99.90;-5.10;97133.00;;;;5002259;28;20440;-73
2022/01/07 08:26:17;;;;;;;1.17;1.07;;;-4.10;99.90;-5.10;97140.00;;;;5007375;28;20437;-71
2022/01/07 08:29:09;;;;;;;1.03;1.00;;;-4.20;99.90;-5.30;97134.00;;;;5008933;28;20452;-70
2022/01/07 08:35:07;;;;;;;2.23;1.53;;;-4.10;99.90;-5.10;97136.00;;;;5005961;28;20563;-72
2022/01/07 08:37:56;;;;;;;3.33;2.57;;;-4.10;99.90;-5.00;97134.00;;;;5008518;28;20944;-71
2022/01/07 08:40:46;;;;;;;3.70;2.73;;;-4.00;99.90;-5.00;97124.00;;;;4999222;28;20501;-73
2022/01/07 08:43:35;;;;;;;2.07;1.33;;;-4.00;99.90;-4.80;97122.00;;;;5001745;28;20759;-72
2022/01/07 08:46:24;;;;;;;1.37;1.33;;;-4.00;99.90;-4.80;97124.00;;;;4999604;28;20425;-69
2022/01/07 08:49:13;;;;;;;3.67;2.53;;;-3.90;99.90;-4.50;97119.00;;;;5006271;28;20432;-72
2022/01/07 08:52:04;;;;;;;3.87;3.00;;;-3.80;99.90;-4.20;97122.00;;;;5004716;28;20453;-71
2022/01/07 08:54:53;;;;;;;3.67;3.37;;;-3.60;99.90;-3.90;97116.00;;;;4991083;28;20506;-70
2022/01/07 08:57:42;;;;;;;3.43;3.13;;;-3.50;99.90;-3.90;97112.00;;;;4984697;28;20438;-71
2022/01/07 09:00:31;;;;;;;5.33;3.07;;;-3.40;99.90;-4.30;97113.00;;;;5005985;28;20478;-71
2022/01/07 09:03:20;;;;;;;2.20;2.00;;;-3.30;99.90;-4.10;97111.00;;;;5005484;28;20421;-71
2022/01/07 09:06:09;;;;;;;2.10;1.80;;;-3.30;99.90;-4.20;97106.00;;;;5004071;28;20805;-69
2022/01/07 09:08:59;;;;;;;7.37;6.17;;;-3.20;99.90;-4.10;97100.00;;;;5000521;28;20472;-72
2022/01/07 09:11:49;;;;;;;3.87;3.50;;;-3.20;99.90;-3.60;97109.00;;;;4996407;28;20476;-70
2022/01/07 09:14:38;;;;;;;2.40;2.03;;;-3.10;99.90;-3.70;97113.00;;;;4974662;28;21216;-71
2022/01/07 09:17:30;;;;;;;3.10;2.23;;;-3.00;99.90;-3.60;97106.00;;;;4978661;28;20814;-70
2022/01/07 09:20:20;;;;;;;2.33;2.13;;;-2.90;99.90;-3.50;97101.00;;;;4981611;28;20870;-71
2022/01/07 09:23:11;;;;;;;1.60;1.50;;;-2.80;99.90;-3.20;97099.00;;;;4983798;28;20445;-71
2022/01/07 09:26:01;;;;;;;4.30;2.23;;;-2.70;99.90;-3.20;97107.00;;;;4986074;28;21034;-71
2022/01/07 09:28:50;;;;;;;6.13;4.53;;;-2.60;99.90;-3.30;97096.00;;;;4976143;28;20473;-71
2022/01/07 09:31:39;;;;;;;34.13;19.00;;;-2.60;99.90;-3.20;97091.00;;;;4990986;28;21044;-72
2022/01/07 09:34:28;;;;;;;3.43;2.77;;;-2.50;99.90;-2.90;97083.00;;;;4985407;28;20943;-71
2022/01/07 09:37:19;;;;;;;2.50;2.00;;;-2.40;99.90;-2.40;97081.00;;;;4986414;28;21739;-71
2022/01/07 09:40:09;;;;;;;1.63;1.53;;;-2.20;99.90;-2.10;97082.00;;;;4986867;28;20450;-70
2022/01/07 09:43:02;;;;;;;3.33;2.37;;;-2.00;99.90;-2.00;97077.00;;;;4988815;28;20445;-71
2022/01/07 09:45:51;;;;;;;6.33;4.23;;;-1.80;99.90;-1.90;97069.00;;;;4994626;28;20441;-72
2022/01/07 09:48:42;;;;;;;5.07;2.83;;;-1.60;99.90;-1.60;97071.00;;;;4988810;28;20461;-71
2022/01/07 09:51:54;;;;;;;2.40;2.03;;;-1.40;99.90;-1.50;97069.00;;;;4991600;28;21274;-72
2022/01/07 09:54:43;;;;;;;4.90;2.00;;;-1.10;99.90;-1.50;97056.00;;;;4989975;28;20498;-71
2022/01/07 09:57:32;;;;;;;5.07;2.70;;;-1.10;99.90;-1.20;97057.00;;;;4992272;28;21571;-70
2022/01/07 10:00:22;;;;;;;4.60;2.43;;;-1.00;99.90;-1.30;97050.00;;;;4993400;28;20438;-70
2022/01/07 10:03:14;;;;;;;3.30;2.33;;;-0.80;99.90;-1.20;97037.00;;;;4985182;28;20426;-70
2022/01/07 10:06:03;;;;;;;3.80;2.00;;;-0.70;99.90;-1.00;97035.00;;;;4977496;28;20438;-72
2022/01/07 10:09:05;;;;;;;4.17;1.93;;;-0.60;99.90;-0.90;97033.00;;;;4986510;28;20471;-71
2022/01/07 10:12:04;;;;;;;3.37;2.40;;;-0.50;99.90;-0.60;97034.00;;;;4986914;28;20458;-71
2022/01/07 10:15:13;;;;;;;2.53;2.00;;;-0.40;99.90;-0.80;97028.00;;;;4983963;28;20437;-70
2022/01/07 10:18:06;;;;;;;2.50;2.00;;;-0.30;99.90;-0.40;97021.00;;;;4989161;28;20469;-71
2022/01/07 10:21:08;;;;;;;4.40;2.33;;;-0.20;99.90;0.10;97027.00;;;;4988810;28;20835;-72
2022/01/07 10:24:03;;;;;;;5.43;2.53;;;0.00;99.90;0.20;97015.00;;;;4986958;28;20551;-70
2022/01/07 10:27:11;;;;;;;2.40;1.83;;;0.20;99.90;0.60;97027.00;;;;4989477;28;20498;-72
2022/01/07 10:30:00;;;;;;;2.90;2.13;;;0.50;99.90;0.80;97016.00;;;;4988555;28;20453;-75
2022/01/07 10:32:49;;;;;;;2.30;1.83;;;1.00;99.90;2.00;97031.00;;;;4983852;28;20457;-77
2022/01/07 10:35:40;;;;;;;3.50;2.20;;;2.10;99.90;2.50;97028.00;;;;4986147;28;20590;-74
2022/01/07 10:38:30;;;;;;;6.93;2.50;;;3.40;99.90;3.20;97022.00;;;;4996959;28;21016;-74
2022/01/07 10:41:20;;;;;;;4.10;2.70;;;4.40;99.90;4.30;97018.00;;;;4992356;28;20221;-75
2022/01/07 10:44:11;;;;;;;6.00;2.40;;;5.30;99.90;5.00;97020.00;;;;4996481;28;20276;-74
2022/01/07 10:47:08;;;;;;;8.20;2.57;;;6.10;99.90;5.40;97020.00;;;;4988488;28;21865;-74
2022/01/07 10:50:17;;;;;;;6.43;2.27;;;6.70;99.90;5.70;97014.00;;;;4995093;28;20234;-75
2022/01/07 10:53:24;;;;;;;5.80;2.80;;;7.10;97.00;6.20;97010.00;;;;4997363;28;20206;-76
2022/01/07 10:56:16;;;;;;;4.40;2.70;;;7.40;94.70;6.40;97001.00;;;;4996260;28;20255;-75
2022/01/07 10:59:07;;;;;;;7.03;2.97;;;7.60;92.50;6.50;97003.00;;;;4994498;28;20217;-76
2022/01/07 11:01:59;;;;;;;5.43;2.60;;;7.90;88.10;6.50;96989.00;;;;4996353;28;20218;-76
2022/01/07 11:04:48;;;;;;;10.80;2.97;;;7.90;83.30;6.90;96985.00;;;;4999233;28;20715;-75
2022/01/07 11:07:42;;;;;;;6.27;2.97;;;7.90;84.20;6.60;96974.00;;;;5003714;28;20319;-75
2022/01/07 11:10:36;;;;;;;13.43;2.60;;;7.90;81.40;6.20;96966.00;;;;4999800;28;20210;-76
2022/01/07 11:13:25;;;;;;;5.00;2.63;;;8.10;73.70;6.20;96963.00;;;;5004152;28;20673;-75
2022/01/07 11:16:14;;;;;;;8.93;2.50;;;8.20;73.70;6.70;96965.00;;;;4994222;28;20208;-76
2022/01/07 11:19:03;;;;;;;7.03;2.83;;;8.10;73.80;6.70;96965.00;;;;5000140;28;20260;-76
2022/01/07 11:21:55;;;;;;;3.90;2.10;;;8.30;71.30;7.30;96950.00;;;;5006850;28;20230;-75
2022/01/07 11:24:47;;;;;;;8.93;2.60;;;8.40;71.20;8.30;96953.00;;;;5005507;28;20310;-75
2022/01/07 11:28:01;;;;;;;6.10;2.30;;;8.60;70.90;7.90;96966.00;;;;4995923;28;20224;-76
2022/01/07 11:31:10;;;;;;;5.90;2.20;;;8.90;69.20;8.00;96956.00;;;;5002592;28;20233;-75
2022/01/07 11:34:24;;;;;;;2.50;1.80;;;9.00;68.50;8.40;96951.00;;;;5000954;28;20251;-75
2022/01/07 11:37:34;;;;;;;6.53;1.97;;;9.10;66.00;9.20;96952.00;;;;5003538;28;20628;-76
2022/01/07 11:40:56;;;;;;;6.13;2.60;;;9.40;63.30;8.60;96947.00;;;;5003943;28;20206;-76
2022/01/07 11:43:49;;;;;;;5.10;2.40;;;9.90;60.50;9.30;96945.00;;;;4987921;28;20199;-75
2022/01/07 11:46:38;;;;;;;6.07;1.87;;;10.30;57.40;9.40;96947.00;;;;4999421;28;20206;-75
2022/01/07 11:49:36;;;;;;;5.77;2.17;;;10.40;57.10;9.10;96928.00;;;;4996977;28;20209;-74
2022/01/07 11:52:34;;;;;;;8.37;2.10;;;10.30;55.10;9.60;96925.00;;;;5001702;28;20708;-75
2022/01/07 11:55:27;;;;;;;4.97;2.00;;;10.40;54.90;10.20;96920.00;;;;4995700;28;20619;-76
2022/01/07 11:58:16;;;;;;;4.77;1.63;;;10.80;54.60;10.50;96917.00;;;;5005260;28;20198;-75
2022/01/07 12:01:07;;;;;;;10.70;2.67;;;11.30;52.90;11.20;96919.00;;;;4994542;28;20226;-78
2022/01/07 12:03:58;;;;;;;6.90;2.73;;;11.70;52.50;11.60;96912.00;;;;4990164;28;20229;-76
2022/01/07 12:06:50;;;;;;;5.20;2.27;;;12.10;51.40;11.80;96913.00;;;;5005216;28;20198;-76
2022/01/07 12:09:41;;;;;;;2.87;1.63;;;12.50;50.40;11.10;96908.00;;;;5005095;28;20206;-76
2022/01/07 12:12:35;;;;;;;4.87;2.13;;;12.70;48.30;10.50;96906.00;;;;5004265;28;20229;-76
2022/01/07 12:15:24;;;;;;;6.83;1.73;;;12.50;45.80;10.60;96915.00;;;;5003607;28;20209;-76
2022/01/07 12:18:14;;;;;;;6.70;2.00;;;12.10;44.70;10.60;96910.00;;;;5005096;28;20212;-76
2022/01/07 12:21:03;;;;;;;2.77;1.67;;;12.20;45.20;9.50;96897.00;;;;5005114;28;20751;-75
2022/01/07 12:24:05;;;;;;;5.10;2.10;;;12.40;43.60;9.10;96886.00;;;;5005444;28;20709;-76
2022/01/07 12:27:03;;;;;;;4.33;1.70;;;11.90;42.60;9.90;96895.00;;;;4994319;28;20232;-76
2022/01/07 12:29:54;;;;;;;1.77;1.10;;;11.50;43.50;10.40;96894.00;;;;5000624;28;20198;-75
2022/01/07 12:32:44;;;;;;;5.33;1.77;;;11.70;43.10;9.10;96882.00;;;;5002884;28;20559;-77
2022/01/07 12:35:35;;;;;;;2.87;1.80;;;11.70;42.60;10.80;96883.00;;;;5004356;28;20253;-76
2022/01/07 12:38:24;;;;;;;1.97;1.60;;;11.70;43.20;11.50;96884.00;;;;4985294;28;20222;-76
2022/01/07 12:41:13;;;;;;;5.57;2.00;;;12.10;43.60;11.30;96881.00;;;;5000035;28;20408;-76
2022/01/07 12:44:06;;;;;;;3.40;1.60;;;12.40;43.00;10.60;96876.00;;;;5003976;28;20201;-77
2022/01/07 12:46:58;;;;;;;3.47;1.50;;;12.70;42.10;8.30;96860.00;;;;4987900;28;20582;-76